createdAt,value
2018-07-27T00:00:40.828Z,52.20
2018-07-27T00:03:08.602Z,52.50
2018-07-27T00:05:36.353Z,52.10
2018-07-27T00:08:04.236Z,51.50
2018-07-27T00:10:32.088Z,51.70
2018-07-27T00:13:00.248Z,51.90
2018-07-27T00:15:28.020Z,52.30
2018-07-27T00:17:56.256Z,52.20
2018-07-27T00:20:24.252Z,52.70
2018-07-27T00:22:52.168Z,53.00
2018-07-27T00:25:20.221Z,53.00
2018-07-27T00:27:48.005Z,53.30
2018-07-27T00:30:15.808Z,53.40
2018-07-27T00:32:43.926Z,53.20
2018-07-27T00:35:11.901Z,53.20
2018-07-27T00:37:39.984Z,53.10
2018-07-27T00:40:10.612Z,53.10
2018-07-27T00:42:38.380Z,53.30
2018-07-27T00:45:06.263Z,53.50
2018-07-27T00:47:34.031Z,53.70
2018-07-27T00:50:01.941Z,53.60
2018-07-27T00:52:29.784Z,53.90
2018-07-27T00:54:57.586Z,53.50
2018-07-27T00:57:29.748Z,53.50
2018-07-27T00:59:57.538Z,53.80
2018-07-27T01:02:26.406Z,54.10
2018-07-27T01:04:54.161Z,54.10
2018-07-27T01:07:22.260Z,54.30
2018-07-27T01:09:50.025Z,54.30
2018-07-27T01:12:17.771Z,54.20
2018-07-27T01:14:45.545Z,54.30
2018-07-27T01:17:13.304Z,54.40
2018-07-27T01:19:41.058Z,54.50
2018-07-27T01:22:08.848Z,54.50
2018-07-27T01:24:36.577Z,54.60
2018-07-27T01:27:04.505Z,54.80
2018-07-27T01:29:32.366Z,54.80
2018-07-27T01:32:00.177Z,54.80
2018-07-27T01:34:27.908Z,55.10
2018-07-27T01:36:55.676Z,55.20
2018-07-27T01:39:23.396Z,55.30
2018-07-27T01:41:51.157Z,55.40
2018-07-27T01:44:18.932Z,55.40
2018-07-27T01:46:46.719Z,55.50
2018-07-27T01:49:14.491Z,55.60
2018-07-27T01:51:42.242Z,55.50
2018-07-27T01:54:10.217Z,55.70
2018-07-27T01:56:38.048Z,55.60
2018-07-27T01:59:05.833Z,55.80
2018-07-27T02:01:44.171Z,55.70
2018-07-27T02:04:13.459Z,55.90
2018-07-27T02:15:26.653Z,56.30
2018-07-27T02:18:02.888Z,56.50
2018-07-27T02:20:37.645Z,56.90
2018-07-27T02:23:12.781Z,56.40
2018-07-27T02:25:46.982Z,56.30
2018-07-27T02:28:21.521Z,56.70
2018-07-27T02:30:55.123Z,56.80
2018-07-27T02:33:29.236Z,57.30
2018-07-27T02:36:03.452Z,57.70
2018-07-27T02:38:36.717Z,57.50
2018-07-27T02:41:10.250Z,57.50
2018-07-27T03:01:01.070Z,58.60
2018-07-27T03:03:36.059Z,58.30
2018-07-27T03:06:08.578Z,58.40
2018-07-27T03:08:41.873Z,58.10
2018-07-27T03:11:15.152Z,58.40
2018-07-27T03:13:48.666Z,58.60
2018-07-27T03:16:21.839Z,58.40
2018-07-27T03:18:55.324Z,58.40
2018-07-27T03:21:31.112Z,58.70
2018-07-27T03:24:05.018Z,58.60
2018-07-27T03:26:39.156Z,58.70
2018-07-27T03:29:12.016Z,58.60
2018-07-27T03:49:05.299Z,58.20
2018-07-27T03:51:39.821Z,58.20
2018-07-27T03:54:13.112Z,58.20
2018-07-27T04:14:04.549Z,58.30
2018-07-27T04:16:37.229Z,58.30
2018-07-27T04:19:12.673Z,58.20
2018-07-27T04:21:46.672Z,57.80
2018-07-27T04:24:21.209Z,58.10
2018-07-27T04:26:54.294Z,58.00
2018-07-27T04:29:28.312Z,57.90
2018-07-27T04:32:01.993Z,56.90
2018-07-27T04:34:35.512Z,57.10
2018-07-27T04:37:11.772Z,57.00
2018-07-27T04:57:03.622Z,58.70
2018-07-27T04:59:37.223Z,59.10
2018-07-27T05:02:12.152Z,59.30
2018-07-27T05:22:03.980Z,60.00
2018-07-27T05:24:38.674Z,60.30
2018-07-27T05:27:12.622Z,59.80
2018-07-27T05:29:46.341Z,59.90
2018-07-27T05:32:19.404Z,60.20
2018-07-27T05:34:53.688Z,60.00
2018-07-27T05:37:27.117Z,59.90
2018-07-27T05:40:01.567Z,60.00
2018-07-27T05:42:34.848Z,59.70
2018-07-27T05:45:09.792Z,59.30
2018-07-27T05:47:42.557Z,58.90
2018-07-27T06:07:34.530Z,55.80
2018-07-27T06:18:48.121Z,51.30
2018-07-27T06:24:08.958Z,51.60
2018-07-27T06:26:36.716Z,51.30
2018-07-27T06:29:04.523Z,50.50
2018-07-27T06:31:40.620Z,49.40
2018-07-27T06:34:10.017Z,48.70
2018-07-27T06:36:37.824Z,48.90
2018-07-27T06:39:07.882Z,48.70
2018-07-27T06:41:35.768Z,48.80
2018-07-27T06:44:03.673Z,47.40
2018-07-27T06:46:31.526Z,47.50
2018-07-27T06:49:09.608Z,45.80
2018-07-27T06:51:37.380Z,45.20
2018-07-27T06:54:05.276Z,44.40
2018-07-27T06:56:33.053Z,44.20
2018-07-27T07:01:54.091Z,43.80
2018-07-27T07:04:21.928Z,42.40
2018-07-27T07:06:49.740Z,41.30
2018-07-27T07:09:17.484Z,41.30
2018-07-27T07:11:45.300Z,41.40
2018-07-27T07:14:13.094Z,39.60
2018-07-27T07:16:40.857Z,39.20
2018-07-27T07:19:09.352Z,38.10
2018-07-27T07:21:37.413Z,37.20
2018-07-27T07:24:05.870Z,37.60
2018-07-27T07:26:33.634Z,36.90
2018-07-27T07:29:01.380Z,37.00
2018-07-27T07:31:29.236Z,36.80
2018-07-27T07:33:57.218Z,36.40
2018-07-27T07:36:25.082Z,36.80
2018-07-27T07:38:55.004Z,36.40
2018-07-27T07:41:23.080Z,37.70
2018-07-27T07:43:51.408Z,37.50
2018-07-27T07:46:19.200Z,36.90
2018-07-27T07:48:46.937Z,37.00
2018-07-27T07:51:14.693Z,37.60
2018-07-27T07:53:42.480Z,36.80
2018-07-27T07:56:10.261Z,36.90
2018-07-27T07:58:38.096Z,37.40
2018-07-27T08:01:06.105Z,37.90
2018-07-27T08:03:33.953Z,37.40
2018-07-27T08:06:01.704Z,35.00
2018-07-27T08:08:29.526Z,35.20
2018-07-27T08:10:57.456Z,35.20
2018-07-27T08:13:25.241Z,35.20
2018-07-27T08:15:53.021Z,36.00
2018-07-27T08:18:20.788Z,36.60
2018-07-27T08:20:48.533Z,35.80
2018-07-27T08:23:16.398Z,35.60
2018-07-27T08:26:12.140Z,35.50
2018-07-27T08:28:42.301Z,34.80
2018-07-27T08:31:10.437Z,35.30
2018-07-27T08:33:38.193Z,35.20
2018-07-27T08:36:06.170Z,36.10
2018-07-27T08:38:33.961Z,35.60
2018-07-27T08:41:01.749Z,35.50
2018-07-27T08:43:34.548Z,34.50
2018-07-27T08:46:02.746Z,34.00
2018-07-27T08:48:30.565Z,33.20
2018-07-27T08:50:58.357Z,33.10
2018-07-27T08:53:26.152Z,32.60
2018-07-27T08:55:53.940Z,33.60
2018-07-27T08:58:21.737Z,33.20
2018-07-27T09:00:54.028Z,33.60
2018-07-27T09:03:21.890Z,32.40
2018-07-27T09:05:49.812Z,32.90
2018-07-27T09:08:17.609Z,31.80
2018-07-27T09:10:45.420Z,31.00
2018-07-27T09:13:13.224Z,31.00
2018-07-27T09:15:41.001Z,31.20
2018-07-27T09:18:09.037Z,30.80
2018-07-27T09:20:37.479Z,30.40
2018-07-27T09:23:05.382Z,30.40
2018-07-27T09:25:38.963Z,30.10
2018-07-27T09:28:07.277Z,29.50
2018-07-27T09:30:35.081Z,29.30
2018-07-27T09:33:02.865Z,29.80
2018-07-27T09:35:30.709Z,30.00
2018-07-27T09:37:58.461Z,29.60
2018-07-27T09:40:26.263Z,29.80
2018-07-27T09:42:54.069Z,30.30
2018-07-27T09:45:21.990Z,31.00
2018-07-27T09:47:50.005Z,32.30
2018-07-27T09:50:17.745Z,31.20
2018-07-27T09:52:45.496Z,30.70
2018-07-27T09:55:13.315Z,30.00
2018-07-27T09:57:41.089Z,29.90
2018-07-27T10:00:08.927Z,29.60
2018-07-27T10:02:36.708Z,28.80
2018-07-27T10:05:04.760Z,29.30
2018-07-27T10:07:32.539Z,28.60
2018-07-27T10:10:00.366Z,29.20
2018-07-27T10:12:28.195Z,29.00
2018-07-27T10:14:56.009Z,28.40
2018-07-27T10:17:23.946Z,28.20
2018-07-27T10:19:52.478Z,27.80
2018-07-27T10:22:20.501Z,28.10
2018-07-27T10:24:48.284Z,28.60
2018-07-27T10:27:16.041Z,28.90
2018-07-27T10:29:43.984Z,30.50
2018-07-27T10:32:11.853Z,29.10
2018-07-27T10:34:39.662Z,28.90
2018-07-27T10:37:07.430Z,28.90
2018-07-27T10:39:35.180Z,29.00
2018-07-27T10:42:03.001Z,28.10
2018-07-27T10:44:30.757Z,28.40
2018-07-27T10:46:58.530Z,28.80
2018-07-27T10:49:26.280Z,28.70
2018-07-27T10:51:54.057Z,28.50
2018-07-27T10:54:21.909Z,28.50
2018-07-27T10:56:49.736Z,28.50
2018-07-27T10:59:17.501Z,28.00
2018-07-27T11:01:45.336Z,29.50
2018-07-27T11:04:13.129Z,30.00
2018-07-27T11:06:41.197Z,28.80
2018-07-27T11:09:09.842Z,28.80
2018-07-27T11:11:37.688Z,28.60
2018-07-27T11:14:05.665Z,28.40
2018-07-27T11:16:33.413Z,28.00
2018-07-27T11:19:01.193Z,28.90
2018-07-27T11:21:28.949Z,27.80
2018-07-27T11:23:56.700Z,28.70
2018-07-27T11:26:24.519Z,28.10
2018-07-27T11:28:52.309Z,28.70
2018-07-27T11:31:20.073Z,28.60
2018-07-27T11:33:47.888Z,29.20
2018-07-27T11:36:15.632Z,29.70
2018-07-27T11:38:43.396Z,29.00
2018-07-27T11:41:11.196Z,29.00
2018-07-27T11:43:39.001Z,28.30
2018-07-27T11:46:06.925Z,28.40
2018-07-27T11:48:34.724Z,28.40
2018-07-27T11:51:02.517Z,28.00
2018-07-27T11:53:30.275Z,28.00
2018-07-27T11:55:58.060Z,26.90
2018-07-27T11:58:25.850Z,27.80
2018-07-27T12:00:53.609Z,27.60
2018-07-27T12:03:21.377Z,27.80
2018-07-27T12:05:49.128Z,27.60
2018-07-27T12:08:16.869Z,26.80
2018-07-27T12:10:44.629Z,27.60
2018-07-27T12:13:12.665Z,26.70
2018-07-27T12:15:40.480Z,27.10
2018-07-27T12:18:08.212Z,27.70
2018-07-27T12:20:36.033Z,27.60
2018-07-27T12:23:03.793Z,28.10
2018-07-27T12:25:31.619Z,27.40
2018-07-27T12:27:59.361Z,27.80
2018-07-27T12:30:27.105Z,27.30
2018-07-27T12:32:54.894Z,27.90
2018-07-27T12:35:22.630Z,28.20
2018-07-27T12:37:50.425Z,28.70
2018-07-27T12:40:18.201Z,27.60
2018-07-27T12:42:46.038Z,27.30
2018-07-27T12:45:13.753Z,28.00
2018-07-27T12:47:41.522Z,26.60
2018-07-27T12:50:09.265Z,27.20
2018-07-27T12:52:37.061Z,26.20
2018-07-27T12:55:05.369Z,25.90
2018-07-27T12:57:33.130Z,25.40
2018-07-27T13:00:00.925Z,25.00
2018-07-27T13:02:29.780Z,24.00
2018-07-27T13:04:57.533Z,25.50
2018-07-27T13:07:25.324Z,26.40
2018-07-27T13:09:58.708Z,25.60
2018-07-27T13:12:26.509Z,24.20
2018-07-27T13:14:54.551Z,25.20
2018-07-27T13:17:22.308Z,26.00
2018-07-27T13:19:50.122Z,25.90
2018-07-27T13:22:18.036Z,26.80
2018-07-27T13:25:00.679Z,26.40
2018-07-27T13:27:13.548Z,26.00
2018-07-27T13:29:41.284Z,26.30
2018-07-27T13:32:09.211Z,25.60
2018-07-27T13:34:42.464Z,26.30
2018-07-27T13:37:10.757Z,27.10
2018-07-27T13:39:39.222Z,26.40
2018-07-27T13:42:10.065Z,26.80
2018-07-27T13:44:38.256Z,27.50
2018-07-27T13:47:06.871Z,27.10
2018-07-27T13:49:34.691Z,28.00
2018-07-27T13:52:02.499Z,27.60
2018-07-27T13:54:31.348Z,27.80
2018-07-27T13:57:04.520Z,28.10
2018-07-27T13:59:32.404Z,27.90
2018-07-27T14:02:00.145Z,28.40
2018-07-27T14:04:39.476Z,29.30
2018-07-27T14:07:07.960Z,28.30
2018-07-27T14:09:35.793Z,28.70
2018-07-27T14:12:03.691Z,28.20
2018-07-27T14:14:31.472Z,29.20
2018-07-27T14:16:59.253Z,28.80
2018-07-27T14:19:28.058Z,29.80
2018-07-27T14:21:55.933Z,29.80
2018-07-27T14:24:23.745Z,28.80
2018-07-27T14:26:51.508Z,29.80
2018-07-27T14:29:19.312Z,29.40
2018-07-27T14:31:47.046Z,29.30
2018-07-27T14:34:14.896Z,29.50
2018-07-27T14:36:43.024Z,30.70
2018-07-27T14:39:12.772Z,30.70
2018-07-27T14:41:41.033Z,29.70
2018-07-27T14:44:09.036Z,30.00
2018-07-27T14:46:37.172Z,31.00
2018-07-27T14:49:09.773Z,30.60
2018-07-27T14:51:39.467Z,31.10
2018-07-27T14:54:08.384Z,30.60
2018-07-27T14:56:36.320Z,30.30
2018-07-27T14:59:04.142Z,29.70
2018-07-27T15:01:31.905Z,29.40
2018-07-27T15:03:59.724Z,29.50
2018-07-27T15:06:27.599Z,29.00
2018-07-27T15:08:55.577Z,29.50
2018-07-27T15:11:23.385Z,29.10
2018-07-27T15:13:51.201Z,29.30
2018-07-27T15:16:19.059Z,29.50
2018-07-27T15:18:46.861Z,29.80
2018-07-27T15:21:14.635Z,29.80
2018-07-27T15:23:42.412Z,30.60
2018-07-27T15:26:10.191Z,30.30
2018-07-27T15:28:39.171Z,30.30
2018-07-27T15:31:07.003Z,29.70
2018-07-27T15:33:35.141Z,29.70
2018-07-27T15:36:02.918Z,31.00
2018-07-27T15:38:30.705Z,30.60
2018-07-27T15:40:58.578Z,31.60
2018-07-27T15:43:26.353Z,30.40
2018-07-27T15:45:54.153Z,30.30
2018-07-27T15:48:21.953Z,30.60
2018-07-27T15:50:49.736Z,31.00
2018-07-27T15:53:17.509Z,30.90
2018-07-27T15:55:45.316Z,30.80
2018-07-27T15:58:13.089Z,29.70
2018-07-27T16:00:40.839Z,29.90
2018-07-27T16:03:08.628Z,30.10
2018-07-27T16:05:36.393Z,29.90
2018-07-27T16:08:04.140Z,29.40
2018-07-27T16:10:31.941Z,29.70
2018-07-27T16:12:59.712Z,29.60
2018-07-27T16:15:27.456Z,28.80
2018-07-27T16:17:55.824Z,28.60
2018-07-27T16:20:23.713Z,28.30
2018-07-27T16:22:51.833Z,29.00
2018-07-27T16:25:19.721Z,28.50
2018-07-27T16:27:47.605Z,28.70
2018-07-27T16:30:15.348Z,28.80
2018-07-27T16:32:43.328Z,28.90
2018-07-27T16:35:11.196Z,28.60
2018-07-27T16:37:39.180Z,25.80
2018-07-27T16:40:07.035Z,26.10
2018-07-27T16:42:34.895Z,27.60
2018-07-27T16:45:02.667Z,28.70
2018-07-27T16:47:30.468Z,28.90
2018-07-27T16:49:58.228Z,29.50
2018-07-27T16:52:26.108Z,28.90
2018-07-27T16:54:53.940Z,29.30
2018-07-27T16:57:21.676Z,29.60
2018-07-27T16:59:49.590Z,28.60
2018-07-27T17:02:17.396Z,28.60
2018-07-27T17:04:45.180Z,28.70
2018-07-27T17:07:12.958Z,28.80
2018-07-27T17:09:40.703Z,28.50
2018-07-27T17:12:08.564Z,26.80
2018-07-27T17:14:36.445Z,27.90
2018-07-27T17:17:04.267Z,27.60
2018-07-27T17:19:32.161Z,27.80
2018-07-27T17:22:00.056Z,27.30
2018-07-27T17:24:27.866Z,27.30
2018-07-27T17:26:55.601Z,27.00
2018-07-27T17:29:23.338Z,27.80
2018-07-27T17:31:51.145Z,28.30
2018-07-27T17:34:19.052Z,28.30
2018-07-27T17:36:46.924Z,28.70
2018-07-27T17:39:15.532Z,28.90
2018-07-27T17:41:43.285Z,29.50
2018-07-27T17:44:11.073Z,28.20
2018-07-27T17:46:38.976Z,28.60
2018-07-27T17:49:07.540Z,28.50
2018-07-27T17:51:35.336Z,32.50
2018-07-27T17:54:03.244Z,36.30
2018-07-27T17:56:31.012Z,37.70
2018-07-27T17:58:58.781Z,38.80
2018-07-27T18:01:26.656Z,40.00
2018-07-27T18:03:54.797Z,39.80
2018-07-27T18:06:22.595Z,39.80
2018-07-27T18:08:50.397Z,40.00
2018-07-27T18:11:18.186Z,40.00
2018-07-27T18:13:45.977Z,39.50
2018-07-27T18:16:13.781Z,39.20
2018-07-27T18:18:41.532Z,38.40
2018-07-27T18:21:09.307Z,39.00
2018-07-27T18:23:37.174Z,39.10
2018-07-27T18:26:05.117Z,39.50
2018-07-27T18:28:38.066Z,40.10
2018-07-27T18:31:12.677Z,39.70
2018-07-27T18:33:40.585Z,39.50
2018-07-27T18:36:08.393Z,39.50
2018-07-27T18:38:36.206Z,40.10
2018-07-27T18:41:04.168Z,39.90
2018-07-27T18:43:32.264Z,39.90
2018-07-27T18:46:00.082Z,40.40
2018-07-27T18:48:34.548Z,40.60
2018-07-27T18:51:03.767Z,40.80
2018-07-27T18:53:31.703Z,40.60
2018-07-27T18:55:59.553Z,41.00
2018-07-27T18:58:27.328Z,40.50
2018-07-27T19:00:55.287Z,40.40
2018-07-27T19:03:23.309Z,40.20
2018-07-27T19:05:51.309Z,40.10
2018-07-27T19:08:19.060Z,39.70
2018-07-27T19:10:46.861Z,40.10
2018-07-27T19:13:14.732Z,40.40
2018-07-27T19:15:42.672Z,40.80
2018-07-27T19:18:10.406Z,41.30
2018-07-27T19:20:38.192Z,41.30
2018-07-27T19:23:06.015Z,41.50
2018-07-27T19:25:33.955Z,42.70
2018-07-27T19:28:01.782Z,43.30
2018-07-27T19:30:29.685Z,43.10
2018-07-27T19:32:57.620Z,43.10
2018-07-27T19:35:25.410Z,43.30
2018-07-27T19:37:53.480Z,43.30
2018-07-27T19:40:21.868Z,43.50
2018-07-27T19:42:49.638Z,43.80
2018-07-27T19:45:17.393Z,43.90
2018-07-27T19:47:45.191Z,44.10
2018-07-27T19:50:13.114Z,43.90
2018-07-27T19:52:41.084Z,43.90
2018-07-27T19:55:08.904Z,44.80
2018-07-27T19:57:36.717Z,44.80
2018-07-27T20:00:06.033Z,44.70
2018-07-27T20:02:33.920Z,44.90
2018-07-27T20:05:01.669Z,45.30
2018-07-27T20:07:29.486Z,45.40
2018-07-27T20:09:57.338Z,45.50
2018-07-27T20:12:25.237Z,45.70
2018-07-27T20:14:53.069Z,46.10
2018-07-27T20:17:22.080Z,46.50
2018-07-27T20:19:50.353Z,46.30
2018-07-27T20:22:18.261Z,46.50
2018-07-27T20:24:46.062Z,47.10
2018-07-27T20:27:13.872Z,47.60
2018-07-27T20:29:41.656Z,47.70
2018-07-27T20:32:15.892Z,48.60
2018-07-27T20:34:51.228Z,47.80
2018-07-27T20:37:19.288Z,47.90
2018-07-27T20:39:47.033Z,48.30
2018-07-27T20:42:21.184Z,48.20
2018-07-27T20:44:56.839Z,48.30
2018-07-27T20:47:36.579Z,48.50
2018-07-27T20:50:11.789Z,48.60
2018-07-27T20:52:47.151Z,48.60
2018-07-27T20:55:21.577Z,48.80
2018-07-27T20:57:56.922Z,48.70
2018-07-27T21:00:30.214Z,48.80
2018-07-27T21:03:12.407Z,48.90
2018-07-27T21:05:47.636Z,49.00
2018-07-27T21:08:23.920Z,48.80
2018-07-27T21:10:59.672Z,48.80
2018-07-27T21:13:33.684Z,49.40
2018-07-27T21:16:09.538Z,49.00
2018-07-27T21:18:44.368Z,49.20
2018-07-27T21:21:19.198Z,49.30
2018-07-27T21:23:48.537Z,49.20
2018-07-27T21:26:16.457Z,49.20
2018-07-27T21:28:44.263Z,49.60
2018-07-27T21:31:12.157Z,49.50
2018-07-27T21:33:39.940Z,50.00
2018-07-27T21:36:07.720Z,50.20
2018-07-27T21:38:45.757Z,50.00
2018-07-27T21:41:19.933Z,49.80
2018-07-27T21:43:48.597Z,50.10
2018-07-27T21:46:16.428Z,50.30
2018-07-27T21:48:44.196Z,49.90
2018-07-27T21:51:12.133Z,50.20
2018-07-27T21:53:39.956Z,50.20
2018-07-27T21:56:07.842Z,50.40
2018-07-27T21:58:35.651Z,50.30
2018-07-27T22:01:03.601Z,50.90
2018-07-27T22:03:37.593Z,50.50
2018-07-27T22:06:12.754Z,50.50
2018-07-27T22:08:46.357Z,50.70
2018-07-27T22:28:39.543Z,50.10
2018-07-27T22:31:13.032Z,50.30
2018-07-27T22:33:46.430Z,50.60
2018-07-27T22:53:36.947Z,50.30
2018-07-27T22:56:10.647Z,50.60
2018-07-27T22:58:43.203Z,50.50
2018-07-27T23:01:17.520Z,50.20
2018-07-27T23:03:51.915Z,50.10
2018-07-27T23:06:26.386Z,49.90
2018-07-27T23:26:20.561Z,50.30
2018-07-27T23:28:55.007Z,50.30
2018-07-27T23:48:52.158Z,50.10
2018-07-27T23:51:26.602Z,50.20
2018-07-27T23:54:01.643Z,50.40
